This is the latest recevied weather packets stored in our database for station/object DB0DUS-10. If no packets are shown the sender has not sent any weather packets the latest 10 day(s).
| Time | Temp. | Humidity | Pressure | Rain* | Wind** | Luminosity | Snow |
|---|---|---|---|---|---|---|---|
| 1777480097 | 20° C | 27% | 1024.9 hPa | 0 mm | - | - | - |
| 1777478896 | 20.56° C | 25% | 1025 hPa | 0 mm | - | - | - |
| 1777478597 | 20.56° C | 25% | 1024.8 hPa | 0 mm | - | - | - |
| 1777477096 | 21.11° C | 22% | 1024.8 hPa | 0 mm | - | - | - |
| 1777475597 | 21.67° C | 21% | 1025 hPa | 0 mm | - | - | - |
| 1777475296 | 22.22° C | 21% | 1025 hPa | 0 mm | - | - | - |
| 1777474097 | 22.22° C | 22% | 1025.1 hPa | 0 mm | - | - | - |
| 1777473496 | 22.22° C | 22% | 1025.1 hPa | 0 mm | - | - | - |
| 1777472597 | 21.67° C | 22% | 1025.3 hPa | 0 mm | - | - | - |
| 1777471697 | 23.33° C | 20% | 1025.3 hPa | 0 mm | - | - | - |
| 1777471097 | 22.78° C | 20% | 1025.2 hPa | 0 mm | - | - | - |
| 1777469896 | 23.33° C | 19% | 1025.3 hPa | 0 mm | - | - | - |
| 1777469597 | 23.33° C | 19% | 1025.4 hPa | 0 mm | - | - | - |
| 1777468097 | 22.78° C | 20% | 1025.4 hPa | 0 mm | - | - | - |
| 1777466598 | 23.33° C | 18% | 1025.5 hPa | 0 mm | - | - | - |
| 1777466297 | 23.89° C | 18% | 1025.4 hPa | 0 mm | - | - | - |
| 1777465098 | 22.78° C | 20% | 1025.5 hPa | 0 mm | - | - | - |
| 1777464497 | 23.89° C | 19% | 1025.6 hPa | 0 mm | - | - | - |
| 1777463598 | 23.89° C | 20% | 1025.5 hPa | 0 mm | - | - | - |
| 1777462697 | 23.89° C | 20% | 1025.7 hPa | 0 mm | - | - | - |
| 1777462098 | 23.33° C | 21% | 1025.7 hPa | 0 mm | - | - | - |
| 1777460897 | 25° C | 19% | 1025.7 hPa | 0 mm | - | - | - |
| 1777460598 | 25.56° C | 18% | 1025.7 hPa | 0 mm | - | - | - |
| 1777459097 | 25° C | 17% | 1025.8 hPa | 0 mm | - | - | - |
| 1777457598 | 23.89° C | 19% | 1025.9 hPa | 0 mm | - | - | - |
* Rain latest hour (hover to see other rain measurements)
** Current wind speed in m/s (hover to see current wind gust speed)